sensor_id;sensor_type;location;lat;lon;timestamp;P1;durP1;ratioP1;P2;durP2;ratioP2
21356;SDS011;10836;53.068;18.234;2022-10-16T00:00:57;68.35;;;42.95;;
21356;SDS011;10836;53.068;18.234;2022-10-16T00:03:40;66.10;;;41.97;;
21356;SDS011;10836;53.068;18.234;2022-10-16T00:06:09;66.78;;;40.55;;
21356;SDS011;10836;53.068;18.234;2022-10-16T00:08:37;63.50;;;40.27;;
21356;SDS011;10836;53.068;18.234;2022-10-16T00:11:06;71.83;;;43.37;;
21356;SDS011;10836;53.068;18.234;2022-10-16T00:13:39;68.93;;;42.40;;
21356;SDS011;10836;53.068;18.234;2022-10-16T00:16:07;74.17;;;43.90;;
21356;SDS011;10836;53.068;18.234;2022-10-16T00:18:36;70.13;;;41.67;;
21356;SDS011;10836;53.068;18.234;2022-10-16T00:21:04;74.20;;;42.07;;
21356;SDS011;10836;53.068;18.234;2022-10-16T00:23:32;66.73;;;43.27;;
21356;SDS011;10836;53.068;18.234;2022-10-16T00:26:04;69.93;;;42.40;;
21356;SDS011;10836;53.068;18.234;2022-10-16T00:28:33;73.57;;;43.70;;
21356;SDS011;10836;53.068;18.234;2022-10-16T00:31:05;73.50;;;43.33;;
21356;SDS011;10836;53.068;18.234;2022-10-16T00:33:33;70.67;;;43.03;;
21356;SDS011;10836;53.068;18.234;2022-10-16T00:36:01;70.60;;;44.97;;
21356;SDS011;10836;53.068;18.234;2022-10-16T00:38:29;71.80;;;44.20;;
21356;SDS011;10836;53.068;18.234;2022-10-16T00:40:56;69.80;;;42.90;;
21356;SDS011;10836;53.068;18.234;2022-10-16T00:46:11;72.97;;;43.67;;
21356;SDS011;10836;53.068;18.234;2022-10-16T00:48:43;75.57;;;44.20;;
21356;SDS011;10836;53.068;18.234;2022-10-16T00:51:15;69.03;;;42.27;;
21356;SDS011;10836;53.068;18.234;2022-10-16T00:53:43;68.65;;;41.90;;
21356;SDS011;10836;53.068;18.234;2022-10-16T00:56:10;66.05;;;41.05;;
21356;SDS011;10836;53.068;18.234;2022-10-16T00:58:37;73.10;;;44.45;;
21356;SDS011;10836;53.068;18.234;2022-10-16T01:01:04;71.22;;;43.30;;
21356;SDS011;10836;53.068;18.234;2022-10-16T01:03:33;70.88;;;43.03;;
21356;SDS011;10836;53.068;18.234;2022-10-16T01:06:09;77.30;;;43.45;;
21356;SDS011;10836;53.068;18.234;2022-10-16T01:11:29;74.43;;;40.25;;
21356;SDS011;10836;53.068;18.234;2022-10-16T01:14:00;70.37;;;41.57;;
21356;SDS011;10836;53.068;18.234;2022-10-16T01:16:40;69.82;;;41.20;;
21356;SDS011;10836;53.068;18.234;2022-10-16T01:22:18;63.27;;;40.63;;
21356;SDS011;10836;53.068;18.234;2022-10-16T01:24:49;67.47;;;40.35;;
21356;SDS011;10836;53.068;18.234;2022-10-16T01:27:26;68.40;;;40.75;;
21356;SDS011;10836;53.068;18.234;2022-10-16T01:38:37;62.63;;;40.90;;
21356;SDS011;10836;53.068;18.234;2022-10-16T01:41:11;62.40;;;37.90;;
21356;SDS011;10836;53.068;18.234;2022-10-16T01:43:44;65.93;;;40.03;;
21356;SDS011;10836;53.068;18.234;2022-10-16T01:46:15;62.67;;;38.77;;
21356;SDS011;10836;53.068;18.234;2022-10-16T01:48:46;63.95;;;38.95;;
21356;SDS011;10836;53.068;18.234;2022-10-16T01:51:15;59.10;;;37.40;;
21356;SDS011;10836;53.068;18.234;2022-10-16T01:53:46;61.80;;;37.83;;
21356;SDS011;10836;53.068;18.234;2022-10-16T01:56:17;65.13;;;40.00;;
21356;SDS011;10836;53.068;18.234;2022-10-16T01:58:59;60.60;;;39.37;;
21356;SDS011;10836;53.068;18.234;2022-10-16T02:01:38;63.23;;;39.83;;
21356;SDS011;10836;53.068;18.234;2022-10-16T02:04:15;60.13;;;39.40;;
21356;SDS011;10836;53.068;18.234;2022-10-16T02:06:50;61.90;;;38.50;;
21356;SDS011;10836;53.068;18.234;2022-10-16T02:09:18;62.70;;;39.67;;
21356;SDS011;10836;53.068;18.234;2022-10-16T02:11:45;64.50;;;38.05;;
21356;SDS011;10836;53.068;18.234;2022-10-16T02:14:13;64.90;;;39.58;;
21356;SDS011;10836;53.068;18.234;2022-10-16T02:16:44;66.18;;;39.47;;
21356;SDS011;10836;53.068;18.234;2022-10-16T02:19:13;68.45;;;41.38;;
21356;SDS011;10836;53.068;18.234;2022-10-16T02:21:48;66.10;;;40.87;;
21356;SDS011;10836;53.068;18.234;2022-10-16T02:27:03;63.38;;;39.70;;
21356;SDS011;10836;53.068;18.234;2022-10-16T02:29:49;62.53;;;40.13;;
21356;SDS011;10836;53.068;18.234;2022-10-16T02:32:27;68.00;;;39.30;;
21356;SDS011;10836;53.068;18.234;2022-10-16T02:34:57;69.67;;;40.53;;
21356;SDS011;10836;53.068;18.234;2022-10-16T02:37:26;63.67;;;39.37;;
21356;SDS011;10836;53.068;18.234;2022-10-16T02:39:55;65.15;;;40.40;;
21356;SDS011;10836;53.068;18.234;2022-10-16T02:42:34;67.17;;;41.37;;
21356;SDS011;10836;53.068;18.234;2022-10-16T02:45:03;66.77;;;39.80;;
21356;SDS011;10836;53.068;18.234;2022-10-16T02:47:31;66.23;;;39.87;;
21356;SDS011;10836;53.068;18.234;2022-10-16T02:49:58;68.77;;;41.90;;
21356;SDS011;10836;53.068;18.234;2022-10-16T02:52:25;65.15;;;39.28;;
21356;SDS011;10836;53.068;18.234;2022-10-16T02:54:53;62.77;;;38.60;;
21356;SDS011;10836;53.068;18.234;2022-10-16T02:57:20;61.55;;;38.17;;
21356;SDS011;10836;53.068;18.234;2022-10-16T02:59:47;72.65;;;39.75;;
21356;SDS011;10836;53.068;18.234;2022-10-16T03:02:14;65.97;;;39.28;;
21356;SDS011;10836;53.068;18.234;2022-10-16T03:04:40;65.43;;;39.33;;
21356;SDS011;10836;53.068;18.234;2022-10-16T03:07:07;61.33;;;37.17;;
21356;SDS011;10836;53.068;18.234;2022-10-16T03:09:34;62.97;;;37.67;;
21356;SDS011;10836;53.068;18.234;2022-10-16T03:12:01;57.08;;;36.13;;
21356;SDS011;10836;53.068;18.234;2022-10-16T03:14:28;60.85;;;37.25;;
21356;SDS011;10836;53.068;18.234;2022-10-16T03:16:55;58.73;;;37.63;;
21356;SDS011;10836;53.068;18.234;2022-10-16T03:19:22;62.83;;;36.25;;
21356;SDS011;10836;53.068;18.234;2022-10-16T03:21:49;54.55;;;36.58;;
21356;SDS011;10836;53.068;18.234;2022-10-16T03:24:16;60.40;;;36.37;;
21356;SDS011;10836;53.068;18.234;2022-10-16T03:26:43;56.90;;;37.08;;
21356;SDS011;10836;53.068;18.234;2022-10-16T03:29:10;54.60;;;34.88;;
21356;SDS011;10836;53.068;18.234;2022-10-16T03:31:37;57.63;;;37.07;;
21356;SDS011;10836;53.068;18.234;2022-10-16T03:34:04;65.23;;;36.63;;
21356;SDS011;10836;53.068;18.234;2022-10-16T03:36:31;61.75;;;37.75;;
21356;SDS011;10836;53.068;18.234;2022-10-16T03:38:58;57.97;;;37.33;;
21356;SDS011;10836;53.068;18.234;2022-10-16T03:41:25;56.97;;;35.42;;
21356;SDS011;10836;53.068;18.234;2022-10-16T03:43:51;55.20;;;36.15;;
21356;SDS011;10836;53.068;18.234;2022-10-16T03:46:18;57.55;;;36.88;;
21356;SDS011;10836;53.068;18.234;2022-10-16T03:48:45;55.60;;;35.40;;
21356;SDS011;10836;53.068;18.234;2022-10-16T03:51:12;58.83;;;35.55;;
21356;SDS011;10836;53.068;18.234;2022-10-16T03:53:39;57.33;;;36.00;;
21356;SDS011;10836;53.068;18.234;2022-10-16T03:56:06;53.80;;;33.90;;
21356;SDS011;10836;53.068;18.234;2022-10-16T03:58:33;57.03;;;34.67;;
21356;SDS011;10836;53.068;18.234;2022-10-16T04:01:00;52.65;;;33.17;;
21356;SDS011;10836;53.068;18.234;2022-10-16T04:03:27;55.45;;;34.60;;
21356;SDS011;10836;53.068;18.234;2022-10-16T04:05:54;56.07;;;34.60;;
21356;SDS011;10836;53.068;18.234;2022-10-16T04:08:21;54.17;;;34.55;;
21356;SDS011;10836;53.068;18.234;2022-10-16T04:10:47;53.15;;;34.00;;
21356;SDS011;10836;53.068;18.234;2022-10-16T04:13:14;50.33;;;33.33;;
21356;SDS011;10836;53.068;18.234;2022-10-16T04:15:41;56.72;;;34.45;;
21356;SDS011;10836;53.068;18.234;2022-10-16T04:18:08;52.45;;;33.63;;
21356;SDS011;10836;53.068;18.234;2022-10-16T04:20:35;53.75;;;34.10;;
21356;SDS011;10836;53.068;18.234;2022-10-16T04:23:02;51.83;;;32.42;;
21356;SDS011;10836;53.068;18.234;2022-10-16T04:25:29;51.15;;;32.85;;
21356;SDS011;10836;53.068;18.234;2022-10-16T04:27:56;52.50;;;34.22;;
21356;SDS011;10836;53.068;18.234;2022-10-16T04:30:23;55.03;;;35.33;;
21356;SDS011;10836;53.068;18.234;2022-10-16T04:32:51;53.07;;;35.40;;
21356;SDS011;10836;53.068;18.234;2022-10-16T04:35:18;52.05;;;32.90;;
21356;SDS011;10836;53.068;18.234;2022-10-16T04:37:47;54.70;;;34.70;;
21356;SDS011;10836;53.068;18.234;2022-10-16T04:40:14;51.03;;;33.13;;
21356;SDS011;10836;53.068;18.234;2022-10-16T04:42:41;51.10;;;32.25;;
21356;SDS011;10836;53.068;18.234;2022-10-16T04:45:08;49.07;;;32.10;;
21356;SDS011;10836;53.068;18.234;2022-10-16T04:47:40;51.20;;;33.13;;
21356;SDS011;10836;53.068;18.234;2022-10-16T04:50:07;50.80;;;33.05;;
21356;SDS011;10836;53.068;18.234;2022-10-16T04:52:34;48.65;;;32.22;;
21356;SDS011;10836;53.068;18.234;2022-10-16T04:55:06;54.47;;;31.27;;
21356;SDS011;10836;53.068;18.234;2022-10-16T04:57:33;52.30;;;31.55;;
21356;SDS011;10836;53.068;18.234;2022-10-16T05:00:00;51.58;;;31.42;;
21356;SDS011;10836;53.068;18.234;2022-10-16T05:02:27;50.63;;;32.67;;
21356;SDS011;10836;53.068;18.234;2022-10-16T05:04:54;48.97;;;31.23;;
21356;SDS011;10836;53.068;18.234;2022-10-16T05:07:21;49.17;;;31.23;;
21356;SDS011;10836;53.068;18.234;2022-10-16T05:09:48;52.40;;;32.45;;
21356;SDS011;10836;53.068;18.234;2022-10-16T05:12:15;52.08;;;30.70;;
21356;SDS011;10836;53.068;18.234;2022-10-16T05:14:42;45.47;;;30.38;;
21356;SDS011;10836;53.068;18.234;2022-10-16T05:17:09;49.53;;;29.60;;
21356;SDS011;10836;53.068;18.234;2022-10-16T05:19:35;54.97;;;30.50;;
21356;SDS011;10836;53.068;18.234;2022-10-16T05:22:02;49.08;;;31.70;;
21356;SDS011;10836;53.068;18.234;2022-10-16T05:24:29;44.92;;;30.05;;
21356;SDS011;10836;53.068;18.234;2022-10-16T05:26:56;48.67;;;30.60;;
21356;SDS011;10836;53.068;18.234;2022-10-16T05:29:23;47.83;;;30.83;;
21356;SDS011;10836;53.068;18.234;2022-10-16T05:31:51;49.92;;;31.90;;
21356;SDS011;10836;53.068;18.234;2022-10-16T05:34:20;46.03;;;30.10;;
21356;SDS011;10836;53.068;18.234;2022-10-16T05:36:47;48.75;;;31.80;;
21356;SDS011;10836;53.068;18.234;2022-10-16T05:39:14;58.50;;;34.88;;
21356;SDS011;10836;53.068;18.234;2022-10-16T05:41:42;57.97;;;35.77;;
21356;SDS011;10836;53.068;18.234;2022-10-16T05:44:10;53.75;;;34.45;;
21356;SDS011;10836;53.068;18.234;2022-10-16T05:46:37;54.60;;;33.92;;
21356;SDS011;10836;53.068;18.234;2022-10-16T05:49:04;60.17;;;35.87;;
21356;SDS011;10836;53.068;18.234;2022-10-16T05:51:31;57.03;;;36.22;;
21356;SDS011;10836;53.068;18.234;2022-10-16T05:53:58;52.88;;;34.60;;
21356;SDS011;10836;53.068;18.234;2022-10-16T05:56:25;54.42;;;33.88;;
21356;SDS011;10836;53.068;18.234;2022-10-16T05:58:52;53.17;;;35.10;;
21356;SDS011;10836;53.068;18.234;2022-10-16T06:01:19;56.00;;;35.08;;
21356;SDS011;10836;53.068;18.234;2022-10-16T06:03:51;51.37;;;32.63;;
21356;SDS011;10836;53.068;18.234;2022-10-16T06:06:19;57.30;;;34.17;;
21356;SDS011;10836;53.068;18.234;2022-10-16T06:08:48;49.63;;;32.73;;
21356;SDS011;10836;53.068;18.234;2022-10-16T06:11:16;45.67;;;30.73;;
21356;SDS011;10836;53.068;18.234;2022-10-16T06:13:52;47.90;;;33.00;;
21356;SDS011;10836;53.068;18.234;2022-10-16T06:16:20;45.67;;;31.17;;
21356;SDS011;10836;53.068;18.234;2022-10-16T06:18:47;45.05;;;30.55;;
21356;SDS011;10836;53.068;18.234;2022-10-16T06:21:16;45.72;;;28.77;;
21356;SDS011;10836;53.068;18.234;2022-10-16T06:23:45;41.45;;;28.98;;
21356;SDS011;10836;53.068;18.234;2022-10-16T06:26:14;40.05;;;26.23;;
21356;SDS011;10836;53.068;18.234;2022-10-16T06:28:43;38.53;;;25.25;;
21356;SDS011;10836;53.068;18.234;2022-10-16T06:31:11;35.60;;;24.40;;
21356;SDS011;10836;53.068;18.234;2022-10-16T06:33:39;40.80;;;26.58;;
21356;SDS011;10836;53.068;18.234;2022-10-16T06:36:07;36.70;;;25.70;;
21356;SDS011;10836;53.068;18.234;2022-10-16T06:38:39;39.20;;;26.88;;
21356;SDS011;10836;53.068;18.234;2022-10-16T06:41:07;37.83;;;26.95;;
21356;SDS011;10836;53.068;18.234;2022-10-16T06:43:37;36.77;;;27.03;;
21356;SDS011;10836;53.068;18.234;2022-10-16T06:46:05;36.10;;;26.52;;
21356;SDS011;10836;53.068;18.234;2022-10-16T06:48:34;33.33;;;24.85;;
21356;SDS011;10836;53.068;18.234;2022-10-16T06:51:03;38.95;;;26.63;;
21356;SDS011;10836;53.068;18.234;2022-10-16T06:53:37;40.28;;;28.10;;
21356;SDS011;10836;53.068;18.234;2022-10-16T06:56:26;37.10;;;24.60;;
21356;SDS011;10836;53.068;18.234;2022-10-16T06:58:54;32.17;;;23.85;;
21356;SDS011;10836;53.068;18.234;2022-10-16T07:01:22;33.83;;;23.70;;
21356;SDS011;10836;53.068;18.234;2022-10-16T07:03:50;34.85;;;22.80;;
21356;SDS011;10836;53.068;18.234;2022-10-16T07:06:19;33.58;;;23.58;;
21356;SDS011;10836;53.068;18.234;2022-10-16T07:08:48;33.22;;;21.95;;
21356;SDS011;10836;53.068;18.234;2022-10-16T07:11:16;28.50;;;20.95;;
21356;SDS011;10836;53.068;18.234;2022-10-16T07:13:45;30.02;;;21.85;;
21356;SDS011;10836;53.068;18.234;2022-10-16T07:16:21;27.77;;;19.67;;
21356;SDS011;10836;53.068;18.234;2022-10-16T07:18:54;29.70;;;18.40;;
21356;SDS011;10836;53.068;18.234;2022-10-16T07:21:27;28.35;;;19.58;;
21356;SDS011;10836;53.068;18.234;2022-10-16T07:23:57;26.33;;;18.27;;
21356;SDS011;10836;53.068;18.234;2022-10-16T07:26:26;26.20;;;18.50;;
21356;SDS011;10836;53.068;18.234;2022-10-16T07:28:54;21.42;;;15.65;;
21356;SDS011;10836;53.068;18.234;2022-10-16T07:31:21;22.77;;;15.40;;
21356;SDS011;10836;53.068;18.234;2022-10-16T07:33:49;22.75;;;15.35;;
21356;SDS011;10836;53.068;18.234;2022-10-16T07:36:18;20.58;;;14.88;;
21356;SDS011;10836;53.068;18.234;2022-10-16T07:38:46;16.88;;;11.80;;
21356;SDS011;10836;53.068;18.234;2022-10-16T07:41:14;15.52;;;11.68;;
21356;SDS011;10836;53.068;18.234;2022-10-16T07:43:46;14.65;;;10.23;;
21356;SDS011;10836;53.068;18.234;2022-10-16T07:46:17;14.90;;;10.55;;
21356;SDS011;10836;53.068;18.234;2022-10-16T07:48:46;15.73;;;10.32;;
21356;SDS011;10836;53.068;18.234;2022-10-16T07:51:15;13.90;;;10.18;;
21356;SDS011;10836;53.068;18.234;2022-10-16T07:53:44;16.70;;;9.85;;
21356;SDS011;10836;53.068;18.234;2022-10-16T07:56:11;14.13;;;10.50;;
21356;SDS011;10836;53.068;18.234;2022-10-16T07:58:39;16.60;;;11.23;;
21356;SDS011;10836;53.068;18.234;2022-10-16T08:01:07;16.38;;;11.07;;
21356;SDS011;10836;53.068;18.234;2022-10-16T08:03:35;17.58;;;11.43;;
21356;SDS011;10836;53.068;18.234;2022-10-16T08:06:03;20.08;;;12.40;;
21356;SDS011;10836;53.068;18.234;2022-10-16T08:08:31;15.73;;;11.80;;
21356;SDS011;10836;53.068;18.234;2022-10-16T08:10:58;17.52;;;12.15;;
21356;SDS011;10836;53.068;18.234;2022-10-16T08:13:25;18.35;;;12.38;;
21356;SDS011;10836;53.068;18.234;2022-10-16T08:15:53;15.82;;;11.82;;
21356;SDS011;10836;53.068;18.234;2022-10-16T08:18:20;16.77;;;11.70;;
21356;SDS011;10836;53.068;18.234;2022-10-16T08:20:47;16.48;;;10.70;;
21356;SDS011;10836;53.068;18.234;2022-10-16T08:23:14;14.50;;;10.15;;
21356;SDS011;10836;53.068;18.234;2022-10-16T08:25:41;13.68;;;9.70;;
21356;SDS011;10836;53.068;18.234;2022-10-16T08:28:09;18.60;;;11.18;;
21356;SDS011;10836;53.068;18.234;2022-10-16T08:30:37;15.40;;;9.85;;
21356;SDS011;10836;53.068;18.234;2022-10-16T08:33:04;11.40;;;9.07;;
21356;SDS011;10836;53.068;18.234;2022-10-16T08:35:33;18.38;;;10.32;;
21356;SDS011;10836;53.068;18.234;2022-10-16T08:38:02;15.88;;;9.45;;
21356;SDS011;10836;53.068;18.234;2022-10-16T08:40:30;13.23;;;9.45;;
21356;SDS011;10836;53.068;18.234;2022-10-16T08:46:11;12.82;;;8.73;;
21356;SDS011;10836;53.068;18.234;2022-10-16T08:48:51;12.48;;;8.68;;
21356;SDS011;10836;53.068;18.234;2022-10-16T08:51:24;11.80;;;8.27;;
21356;SDS011;10836;53.068;18.234;2022-10-16T08:54:39;13.65;;;8.57;;
21356;SDS011;10836;53.068;18.234;2022-10-16T08:57:07;12.32;;;7.38;;
21356;SDS011;10836;53.068;18.234;2022-10-16T08:59:38;11.70;;;8.30;;
21356;SDS011;10836;53.068;18.234;2022-10-16T09:02:14;13.40;;;7.90;;
21356;SDS011;10836;53.068;18.234;2022-10-16T09:05:09;12.25;;;7.88;;
21356;SDS011;10836;53.068;18.234;2022-10-16T09:11:36;17.88;;;8.52;;
21356;SDS011;10836;53.068;18.234;2022-10-16T09:16:43;11.38;;;8.40;;
21356;SDS011;10836;53.068;18.234;2022-10-16T09:21:57;12.48;;;7.78;;
21356;SDS011;10836;53.068;18.234;2022-10-16T09:24:29;14.40;;;7.72;;
21356;SDS011;10836;53.068;18.234;2022-10-16T09:26:56;12.63;;;8.25;;
21356;SDS011;10836;53.068;18.234;2022-10-16T09:29:23;13.45;;;9.00;;
21356;SDS011;10836;53.068;18.234;2022-10-16T09:31:52;13.48;;;8.23;;
21356;SDS011;10836;53.068;18.234;2022-10-16T09:34:30;13.40;;;8.43;;
21356;SDS011;10836;53.068;18.234;2022-10-16T09:37:01;14.82;;;7.75;;
21356;SDS011;10836;53.068;18.234;2022-10-16T09:39:43;14.02;;;8.38;;
21356;SDS011;10836;53.068;18.234;2022-10-16T09:42:22;12.98;;;7.82;;
21356;SDS011;10836;53.068;18.234;2022-10-16T09:45:00;10.88;;;7.03;;
21356;SDS011;10836;53.068;18.234;2022-10-16T09:47:28;11.82;;;7.65;;
21356;SDS011;10836;53.068;18.234;2022-10-16T09:49:57;12.85;;;8.82;;
21356;SDS011;10836;53.068;18.234;2022-10-16T09:52:29;12.10;;;7.18;;
21356;SDS011;10836;53.068;18.234;2022-10-16T09:55:18;16.45;;;7.68;;
21356;SDS011;10836;53.068;18.234;2022-10-16T09:57:51;12.23;;;7.78;;
21356;SDS011;10836;53.068;18.234;2022-10-16T10:00:19;14.95;;;8.10;;
21356;SDS011;10836;53.068;18.234;2022-10-16T10:02:48;16.48;;;7.13;;
21356;SDS011;10836;53.068;18.234;2022-10-16T10:05:34;12.05;;;7.70;;
21356;SDS011;10836;53.068;18.234;2022-10-16T10:08:01;16.35;;;7.55;;
21356;SDS011;10836;53.068;18.234;2022-10-16T10:10:34;8.73;;;6.25;;
21356;SDS011;10836;53.068;18.234;2022-10-16T10:13:18;8.85;;;6.00;;
21356;SDS011;10836;53.068;18.234;2022-10-16T10:15:46;9.73;;;5.60;;
21356;SDS011;10836;53.068;18.234;2022-10-16T10:18:15;9.77;;;5.57;;
21356;SDS011;10836;53.068;18.234;2022-10-16T10:20:44;6.93;;;5.03;;
21356;SDS011;10836;53.068;18.234;2022-10-16T10:23:21;7.68;;;5.03;;
21356;SDS011;10836;53.068;18.234;2022-10-16T10:25:52;8.30;;;4.88;;
21356;SDS011;10836;53.068;18.234;2022-10-16T10:33:48;8.27;;;5.32;;
21356;SDS011;10836;53.068;18.234;2022-10-16T10:52:19;10.80;;;5.20;;
21356;SDS011;10836;53.068;18.234;2022-10-16T10:55:09;8.23;;;5.57;;
21356;SDS011;10836;53.068;18.234;2022-10-16T10:57:48;9.10;;;5.50;;
21356;SDS011;10836;53.068;18.234;2022-10-16T11:00:34;9.23;;;5.90;;
21356;SDS011;10836;53.068;18.234;2022-10-16T11:06:07;7.07;;;5.20;;
21356;SDS011;10836;53.068;18.234;2022-10-16T11:08:55;8.52;;;5.55;;
21356;SDS011;10836;53.068;18.234;2022-10-16T11:11:33;9.10;;;5.22;;
21356;SDS011;10836;53.068;18.234;2022-10-16T11:22:47;9.50;;;5.25;;
21356;SDS011;10836;53.068;18.234;2022-10-16T11:25:20;10.70;;;5.57;;
21356;SDS011;10836;53.068;18.234;2022-10-16T11:30:25;7.03;;;5.30;;
21356;SDS011;10836;53.068;18.234;2022-10-16T11:38:32;11.38;;;4.93;;
21356;SDS011;10836;53.068;18.234;2022-10-16T11:41:18;6.70;;;5.18;;
21356;SDS011;10836;53.068;18.234;2022-10-16T11:44:14;8.98;;;5.10;;
21356;SDS011;10836;53.068;18.234;2022-10-16T11:50:13;8.38;;;5.10;;
21356;SDS011;10836;53.068;18.234;2022-10-16T11:52:58;8.00;;;5.40;;
21356;SDS011;10836;53.068;18.234;2022-10-16T11:55:38;8.43;;;5.80;;
21356;SDS011;10836;53.068;18.234;2022-10-16T12:01:10;8.13;;;5.85;;
21356;SDS011;10836;53.068;18.234;2022-10-16T12:03:57;9.38;;;5.43;;
21356;SDS011;10836;53.068;18.234;2022-10-16T12:09:25;9.00;;;5.53;;
21356;SDS011;10836;53.068;18.234;2022-10-16T12:11:55;11.02;;;6.43;;
21356;SDS011;10836;53.068;18.234;2022-10-16T12:17:03;8.75;;;5.65;;
21356;SDS011;10836;53.068;18.234;2022-10-16T12:20:00;15.05;;;5.78;;
21356;SDS011;10836;53.068;18.234;2022-10-16T12:22:52;12.20;;;6.07;;
21356;SDS011;10836;53.068;18.234;2022-10-16T12:25:28;11.57;;;6.00;;
21356;SDS011;10836;53.068;18.234;2022-10-16T12:28:02;8.43;;;5.40;;
21356;SDS011;10836;53.068;18.234;2022-10-16T12:30:35;9.73;;;6.07;;
21356;SDS011;10836;53.068;18.234;2022-10-16T12:33:04;8.35;;;5.35;;
21356;SDS011;10836;53.068;18.234;2022-10-16T12:35:34;9.75;;;5.93;;
21356;SDS011;10836;53.068;18.234;2022-10-16T12:38:15;7.95;;;5.65;;
21356;SDS011;10836;53.068;18.234;2022-10-16T12:40:46;7.65;;;5.75;;
21356;SDS011;10836;53.068;18.234;2022-10-16T12:46:20;10.07;;;5.93;;
21356;SDS011;10836;53.068;18.234;2022-10-16T12:48:49;9.30;;;5.15;;
21356;SDS011;10836;53.068;18.234;2022-10-16T12:59:22;6.75;;;5.10;;
21356;SDS011;10836;53.068;18.234;2022-10-16T13:02:16;12.70;;;5.93;;
21356;SDS011;10836;53.068;18.234;2022-10-16T13:04:56;7.38;;;5.10;;
21356;SDS011;10836;53.068;18.234;2022-10-16T13:18:30;11.48;;;5.20;;
21356;SDS011;10836;53.068;18.234;2022-10-16T13:24:25;7.05;;;5.22;;
21356;SDS011;10836;53.068;18.234;2022-10-16T13:27:07;11.30;;;5.55;;
21356;SDS011;10836;53.068;18.234;2022-10-16T13:29:45;14.48;;;5.38;;
21356;SDS011;10836;53.068;18.234;2022-10-16T13:32:18;8.90;;;5.35;;
21356;SDS011;10836;53.068;18.234;2022-10-16T13:34:48;9.55;;;5.50;;
21356;SDS011;10836;53.068;18.234;2022-10-16T13:37:19;6.32;;;5.13;;
21356;SDS011;10836;53.068;18.234;2022-10-16T13:39:48;7.15;;;4.72;;
21356;SDS011;10836;53.068;18.234;2022-10-16T13:44:56;8.95;;;5.35;;
21356;SDS011;10836;53.068;18.234;2022-10-16T13:47:24;9.45;;;4.72;;
21356;SDS011;10836;53.068;18.234;2022-10-16T13:50:04;7.82;;;4.95;;
21356;SDS011;10836;53.068;18.234;2022-10-16T13:52:32;9.50;;;5.03;;
21356;SDS011;10836;53.068;18.234;2022-10-16T13:55:00;9.20;;;5.13;;
21356;SDS011;10836;53.068;18.234;2022-10-16T13:57:28;9.57;;;5.35;;
21356;SDS011;10836;53.068;18.234;2022-10-16T13:59:55;5.25;;;4.53;;
21356;SDS011;10836;53.068;18.234;2022-10-16T14:04:53;8.50;;;4.85;;
21356;SDS011;10836;53.068;18.234;2022-10-16T14:07:23;9.88;;;5.50;;
21356;SDS011;10836;53.068;18.234;2022-10-16T14:09:52;7.18;;;4.68;;
21356;SDS011;10836;53.068;18.234;2022-10-16T14:12:21;6.82;;;5.28;;
21356;SDS011;10836;53.068;18.234;2022-10-16T14:14:54;9.15;;;5.32;;
21356;SDS011;10836;53.068;18.234;2022-10-16T14:17:27;10.15;;;5.22;;
21356;SDS011;10836;53.068;18.234;2022-10-16T14:19:57;9.57;;;4.80;;
21356;SDS011;10836;53.068;18.234;2022-10-16T14:22:33;11.50;;;5.57;;
21356;SDS011;10836;53.068;18.234;2022-10-16T14:27:57;10.00;;;5.53;;
21356;SDS011;10836;53.068;18.234;2022-10-16T14:30:26;7.65;;;5.32;;
21356;SDS011;10836;53.068;18.234;2022-10-16T14:32:54;13.40;;;5.95;;
21356;SDS011;10836;53.068;18.234;2022-10-16T14:35:36;12.55;;;6.53;;
21356;SDS011;10836;53.068;18.234;2022-10-16T14:38:05;10.63;;;5.63;;
21356;SDS011;10836;53.068;18.234;2022-10-16T14:40:36;7.05;;;5.07;;
21356;SDS011;10836;53.068;18.234;2022-10-16T14:43:04;7.03;;;5.40;;
21356;SDS011;10836;53.068;18.234;2022-10-16T14:45:32;11.70;;;5.65;;
21356;SDS011;10836;53.068;18.234;2022-10-16T14:48:02;9.07;;;5.32;;
21356;SDS011;10836;53.068;18.234;2022-10-16T14:50:45;7.65;;;5.40;;
21356;SDS011;10836;53.068;18.234;2022-10-16T14:53:12;7.43;;;6.03;;
21356;SDS011;10836;53.068;18.234;2022-10-16T14:55:40;10.90;;;5.60;;
21356;SDS011;10836;53.068;18.234;2022-10-16T14:58:18;10.88;;;6.00;;
21356;SDS011;10836;53.068;18.234;2022-10-16T15:00:47;8.23;;;5.85;;
21356;SDS011;10836;53.068;18.234;2022-10-16T15:03:14;10.77;;;6.03;;
21356;SDS011;10836;53.068;18.234;2022-10-16T15:05:42;11.77;;;6.40;;
21356;SDS011;10836;53.068;18.234;2022-10-16T15:08:09;8.02;;;5.78;;
21356;SDS011;10836;53.068;18.234;2022-10-16T15:10:40;8.23;;;6.03;;
21356;SDS011;10836;53.068;18.234;2022-10-16T15:13:11;10.00;;;5.20;;
21356;SDS011;10836;53.068;18.234;2022-10-16T15:15:43;9.48;;;5.43;;
21356;SDS011;10836;53.068;18.234;2022-10-16T15:18:12;10.13;;;6.07;;
21356;SDS011;10836;53.068;18.234;2022-10-16T15:20:41;8.70;;;5.63;;
21356;SDS011;10836;53.068;18.234;2022-10-16T15:23:18;14.52;;;6.00;;
21356;SDS011;10836;53.068;18.234;2022-10-16T15:25:51;13.10;;;5.50;;
21356;SDS011;10836;53.068;18.234;2022-10-16T15:28:20;9.65;;;6.25;;
21356;SDS011;10836;53.068;18.234;2022-10-16T15:30:49;11.18;;;6.40;;
21356;SDS011;10836;53.068;18.234;2022-10-16T15:33:18;14.15;;;6.25;;
21356;SDS011;10836;53.068;18.234;2022-10-16T15:35:47;10.75;;;6.68;;
21356;SDS011;10836;53.068;18.234;2022-10-16T15:38:14;7.95;;;6.18;;
21356;SDS011;10836;53.068;18.234;2022-10-16T15:40:42;11.13;;;6.35;;
21356;SDS011;10836;53.068;18.234;2022-10-16T15:43:09;8.23;;;6.18;;
21356;SDS011;10836;53.068;18.234;2022-10-16T15:45:37;10.77;;;6.35;;
21356;SDS011;10836;53.068;18.234;2022-10-16T15:48:04;8.43;;;6.07;;
21356;SDS011;10836;53.068;18.234;2022-10-16T15:50:31;10.20;;;6.25;;
21356;SDS011;10836;53.068;18.234;2022-10-16T15:52:58;11.57;;;6.20;;
21356;SDS011;10836;53.068;18.234;2022-10-16T15:55:25;17.35;;;6.80;;
21356;SDS011;10836;53.068;18.234;2022-10-16T15:57:52;12.27;;;7.40;;
21356;SDS011;10836;53.068;18.234;2022-10-16T16:00:19;16.40;;;7.07;;
21356;SDS011;10836;53.068;18.234;2022-10-16T16:02:52;16.35;;;7.95;;
21356;SDS011;10836;53.068;18.234;2022-10-16T16:05:20;15.32;;;10.45;;
21356;SDS011;10836;53.068;18.234;2022-10-16T16:07:48;22.65;;;9.77;;
21356;SDS011;10836;53.068;18.234;2022-10-16T16:10:16;15.05;;;9.73;;
21356;SDS011;10836;53.068;18.234;2022-10-16T16:12:45;16.77;;;9.63;;
21356;SDS011;10836;53.068;18.234;2022-10-16T16:15:21;27.25;;;21.33;;
21356;SDS011;10836;53.068;18.234;2022-10-16T16:17:49;32.28;;;19.60;;
21356;SDS011;10836;53.068;18.234;2022-10-16T16:20:16;38.13;;;23.45;;
21356;SDS011;10836;53.068;18.234;2022-10-16T16:22:43;17.85;;;11.93;;
21356;SDS011;10836;53.068;18.234;2022-10-16T16:25:10;28.88;;;15.75;;
21356;SDS011;10836;53.068;18.234;2022-10-16T16:27:37;33.05;;;21.60;;
21356;SDS011;10836;53.068;18.234;2022-10-16T16:30:06;35.70;;;21.75;;
21356;SDS011;10836;53.068;18.234;2022-10-16T16:32:34;21.00;;;14.30;;
21356;SDS011;10836;53.068;18.234;2022-10-16T16:35:02;30.38;;;17.08;;